sensor_id;sensor_type;location;lat;lon;timestamp;temperature;humidity
4787;DHT22;62338;48.832;9.422;2023-06-10T00:01:52;17.00;99.90
4787;DHT22;62338;48.832;9.422;2023-06-10T00:03:56;16.90;99.90
4787;DHT22;62338;48.832;9.422;2023-06-10T00:05:59;16.90;99.90
4787;DHT22;62338;48.832;9.422;2023-06-10T00:08:01;16.80;99.90
4787;DHT22;62338;48.832;9.422;2023-06-10T00:10:08;16.80;99.90
4787;DHT22;62338;48.832;9.422;2023-06-10T00:12:12;16.80;99.90
4787;DHT22;62338;48.832;9.422;2023-06-10T00:14:14;16.90;99.90
4787;DHT22;62338;48.832;9.422;2023-06-10T00:16:15;16.90;99.90
4787;DHT22;62338;48.832;9.422;2023-06-10T00:18:19;16.90;99.90
4787;DHT22;62338;48.832;9.422;2023-06-10T00:20:23;16.90;99.90
4787;DHT22;62338;48.832;9.422;2023-06-10T00:22:26;16.90;99.90
4787;DHT22;62338;48.832;9.422;2023-06-10T00:24:30;16.90;99.90
4787;DHT22;62338;48.832;9.422;2023-06-10T00:26:33;16.90;99.90
4787;DHT22;62338;48.832;9.422;2023-06-10T00:28:34;16.90;99.90
4787;DHT22;62338;48.832;9.422;2023-06-10T00:30:36;16.90;99.90
4787;DHT22;62338;48.832;9.422;2023-06-10T00:32:38;16.90;99.90
4787;DHT22;62338;48.832;9.422;2023-06-10T00:34:40;16.90;99.90
4787;DHT22;62338;48.832;9.422;2023-06-10T00:36:41;16.80;99.90
4787;DHT22;62338;48.832;9.422;2023-06-10T00:38:44;16.80;99.90
4787;DHT22;62338;48.832;9.422;2023-06-10T00:40:46;16.80;99.90
4787;DHT22;62338;48.832;9.422;2023-06-10T00:42:48;16.80;99.90
4787;DHT22;62338;48.832;9.422;2023-06-10T00:44:54;16.70;99.90
4787;DHT22;62338;48.832;9.422;2023-06-10T00:46:56;16.70;1.00
4787;DHT22;62338;48.832;9.422;2023-06-10T00:48:58;16.70;99.90
4787;DHT22;62338;48.832;9.422;2023-06-10T00:51:00;16.60;99.90
4787;DHT22;62338;48.832;9.422;2023-06-10T00:53:02;16.60;99.90
4787;DHT22;62338;48.832;9.422;2023-06-10T00:55:04;16.60;99.90
4787;DHT22;62338;48.832;9.422;2023-06-10T00:57:07;16.50;99.90
4787;DHT22;62338;48.832;9.422;2023-06-10T00:59:09;16.50;99.90
4787;DHT22;62338;48.832;9.422;2023-06-10T01:01:11;16.50;99.90
4787;DHT22;62338;48.832;9.422;2023-06-10T01:03:14;16.50;99.90
4787;DHT22;62338;48.832;9.422;2023-06-10T01:05:19;16.50;99.90
4787;DHT22;62338;48.832;9.422;2023-06-10T01:08:09;16.50;99.90
4787;DHT22;62338;48.832;9.422;2023-06-10T01:10:22;16.40;99.90
4787;DHT22;62338;48.832;9.422;2023-06-10T01:14:56;16.30;99.90
4787;DHT22;62338;48.832;9.422;2023-06-10T01:17:00;16.30;99.90
4787;DHT22;62338;48.832;9.422;2023-06-10T01:19:06;16.20;1.00
4787;DHT22;62338;48.832;9.422;2023-06-10T01:21:08;16.10;99.90
4787;DHT22;62338;48.832;9.422;2023-06-10T01:23:11;16.10;1.00
4787;DHT22;62338;48.832;9.422;2023-06-10T01:25:13;16.00;15.10
4787;DHT22;62338;48.832;9.422;2023-06-10T01:27:15;15.90;99.90
4787;DHT22;62338;48.832;9.422;2023-06-10T01:29:31;15.70;99.90
4787;DHT22;62338;48.832;9.422;2023-06-10T01:33:45;15.50;99.90
4787;DHT22;62338;48.832;9.422;2023-06-10T01:35:49;15.50;99.90
4787;DHT22;62338;48.832;9.422;2023-06-10T01:37:53;15.50;99.90
4787;DHT22;62338;48.832;9.422;2023-06-10T01:39:58;15.50;99.90
4787;DHT22;62338;48.832;9.422;2023-06-10T01:42:00;15.50;99.90
4787;DHT22;62338;48.832;9.422;2023-06-10T01:44:04;15.50;99.90
4787;DHT22;62338;48.832;9.422;2023-06-10T01:46:06;15.50;99.90
4787;DHT22;62338;48.832;9.422;2023-06-10T01:48:07;15.50;99.90
4787;DHT22;62338;48.832;9.422;2023-06-10T01:50:09;15.40;99.90
4787;DHT22;62338;48.832;9.422;2023-06-10T01:52:11;15.40;99.90
4787;DHT22;62338;48.832;9.422;2023-06-10T01:54:13;15.40;99.90
4787;DHT22;62338;48.832;9.422;2023-06-10T01:56:15;15.40;99.90
4787;DHT22;62338;48.832;9.422;2023-06-10T01:58:19;15.40;99.90
4787;DHT22;62338;48.832;9.422;2023-06-10T02:00:21;15.40;99.90
4787;DHT22;62338;48.832;9.422;2023-06-10T02:02:23;15.50;99.90
4787;DHT22;62338;48.832;9.422;2023-06-10T02:04:26;15.50;99.90
4787;DHT22;62338;48.832;9.422;2023-06-10T02:06:28;15.40;99.90
4787;DHT22;62338;48.832;9.422;2023-06-10T02:08:29;15.40;99.90
4787;DHT22;62338;48.832;9.422;2023-06-10T02:10:31;15.30;99.90
4787;DHT22;62338;48.832;9.422;2023-06-10T02:12:33;15.30;1.00
4787;DHT22;62338;48.832;9.422;2023-06-10T02:14:35;15.20;1.00
4787;DHT22;62338;48.832;9.422;2023-06-10T02:16:37;15.20;1.00
4787;DHT22;62338;48.832;9.422;2023-06-10T02:18:40;15.10;1.00
4787;DHT22;62338;48.832;9.422;2023-06-10T02:20:44;15.10;1.00
4787;DHT22;62338;48.832;9.422;2023-06-10T02:22:46;15.00;1.00
4787;DHT22;62338;48.832;9.422;2023-06-10T02:24:48;15.00;1.00
4787;DHT22;62338;48.832;9.422;2023-06-10T02:26:50;15.00;1.00
4787;DHT22;62338;48.832;9.422;2023-06-10T02:28:53;15.00;1.00
4787;DHT22;62338;48.832;9.422;2023-06-10T02:30:55;15.00;1.00
4787;DHT22;62338;48.832;9.422;2023-06-10T02:32:58;14.90;1.00
4787;DHT22;62338;48.832;9.422;2023-06-10T02:35:01;14.90;1.00
4787;DHT22;62338;48.832;9.422;2023-06-10T02:37:03;14.90;1.00
4787;DHT22;62338;48.832;9.422;2023-06-10T02:39:05;14.90;1.00
4787;DHT22;62338;48.832;9.422;2023-06-10T02:41:06;14.80;1.00
4787;DHT22;62338;48.832;9.422;2023-06-10T02:43:09;14.80;1.00
4787;DHT22;62338;48.832;9.422;2023-06-10T02:45:11;14.80;1.00
4787;DHT22;62338;48.832;9.422;2023-06-10T02:47:13;14.90;1.00
4787;DHT22;62338;48.832;9.422;2023-06-10T02:49:14;14.90;1.00
4787;DHT22;62338;48.832;9.422;2023-06-10T02:51:16;14.80;1.00
4787;DHT22;62338;48.832;9.422;2023-06-10T02:53:18;14.90;1.00
4787;DHT22;62338;48.832;9.422;2023-06-10T02:55:20;14.80;1.00
4787;DHT22;62338;48.832;9.422;2023-06-10T02:57:22;14.80;1.00
4787;DHT22;62338;48.832;9.422;2023-06-10T02:59:24;14.80;1.00
4787;DHT22;62338;48.832;9.422;2023-06-10T03:01:28;14.80;1.00
4787;DHT22;62338;48.832;9.422;2023-06-10T03:03:30;14.80;1.00
4787;DHT22;62338;48.832;9.422;2023-06-10T03:05:32;14.80;1.00
4787;DHT22;62338;48.832;9.422;2023-06-10T03:07:34;14.70;1.00
4787;DHT22;62338;48.832;9.422;2023-06-10T03:09:37;14.70;1.00
4787;DHT22;62338;48.832;9.422;2023-06-10T03:11:38;14.70;1.00
4787;DHT22;62338;48.832;9.422;2023-06-10T03:13:40;14.70;1.00
4787;DHT22;62338;48.832;9.422;2023-06-10T03:15:42;14.70;1.00
4787;DHT22;62338;48.832;9.422;2023-06-10T03:17:44;14.60;1.00
4787;DHT22;62338;48.832;9.422;2023-06-10T03:19:46;14.70;1.00
4787;DHT22;62338;48.832;9.422;2023-06-10T03:21:50;14.70;1.00
4787;DHT22;62338;48.832;9.422;2023-06-10T03:23:56;14.70;1.00
4787;DHT22;62338;48.832;9.422;2023-06-10T03:25:58;14.70;1.00
4787;DHT22;62338;48.832;9.422;2023-06-10T03:27:59;14.70;1.00
4787;DHT22;62338;48.832;9.422;2023-06-10T03:30:02;14.70;1.00
4787;DHT22;62338;48.832;9.422;2023-06-10T03:32:05;14.60;1.00
4787;DHT22;62338;48.832;9.422;2023-06-10T03:34:07;14.60;1.00
4787;DHT22;62338;48.832;9.422;2023-06-10T03:36:09;14.60;1.00
4787;DHT22;62338;48.832;9.422;2023-06-10T03:38:11;14.60;1.00
4787;DHT22;62338;48.832;9.422;2023-06-10T03:40:13;14.60;1.00
4787;DHT22;62338;48.832;9.422;2023-06-10T03:42:15;14.60;1.00
4787;DHT22;62338;48.832;9.422;2023-06-10T03:44:16;14.60;1.00
4787;DHT22;62338;48.832;9.422;2023-06-10T03:46:18;14.60;1.00
4787;DHT22;62338;48.832;9.422;2023-06-10T03:48:20;14.60;1.00
4787;DHT22;62338;48.832;9.422;2023-06-10T03:50:22;14.60;1.00
4787;DHT22;62338;48.832;9.422;2023-06-10T03:52:25;14.60;1.00
4787;DHT22;62338;48.832;9.422;2023-06-10T03:54:26;14.70;1.00
4787;DHT22;62338;48.832;9.422;2023-06-10T03:56:28;14.70;1.00
4787;DHT22;62338;48.832;9.422;2023-06-10T03:58:30;14.70;1.00
4787;DHT22;62338;48.832;9.422;2023-06-10T04:00:32;14.80;1.00
4787;DHT22;62338;48.832;9.422;2023-06-10T04:02:43;14.80;1.00
4787;DHT22;62338;48.832;9.422;2023-06-10T04:04:49;14.80;1.00
4787;DHT22;62338;48.832;9.422;2023-06-10T04:06:50;14.80;1.00
4787;DHT22;62338;48.832;9.422;2023-06-10T04:08:52;14.80;1.00
4787;DHT22;62338;48.832;9.422;2023-06-10T04:10:55;14.90;1.00
4787;DHT22;62338;48.832;9.422;2023-06-10T04:12:57;15.00;1.00
4787;DHT22;62338;48.832;9.422;2023-06-10T04:14:59;15.00;1.00
4787;DHT22;62338;48.832;9.422;2023-06-10T04:17:02;15.00;1.00
4787;DHT22;62338;48.832;9.422;2023-06-10T04:19:03;15.00;1.00
4787;DHT22;62338;48.832;9.422;2023-06-10T04:21:05;15.00;1.00
4787;DHT22;62338;48.832;9.422;2023-06-10T04:23:07;15.10;1.00
4787;DHT22;62338;48.832;9.422;2023-06-10T04:25:09;15.10;1.00
4787;DHT22;62338;48.832;9.422;2023-06-10T04:27:12;15.20;1.00
4787;DHT22;62338;48.832;9.422;2023-06-10T04:29:14;15.20;1.00
4787;DHT22;62338;48.832;9.422;2023-06-10T04:31:16;15.20;1.00
4787;DHT22;62338;48.832;9.422;2023-06-10T04:33:17;15.30;1.00
4787;DHT22;62338;48.832;9.422;2023-06-10T04:35:19;15.30;1.00
4787;DHT22;62338;48.832;9.422;2023-06-10T04:37:21;15.30;1.00
4787;DHT22;62338;48.832;9.422;2023-06-10T04:39:23;15.40;1.00
4787;DHT22;62338;48.832;9.422;2023-06-10T04:41:24;15.40;1.00
4787;DHT22;62338;48.832;9.422;2023-06-10T04:43:27;15.40;1.00
4787;DHT22;62338;48.832;9.422;2023-06-10T04:45:30;15.40;1.00
4787;DHT22;62338;48.832;9.422;2023-06-10T04:47:32;15.40;1.00
4787;DHT22;62338;48.832;9.422;2023-06-10T04:49:35;15.50;1.00
4787;DHT22;62338;48.832;9.422;2023-06-10T04:51:37;15.50;1.00
4787;DHT22;62338;48.832;9.422;2023-06-10T04:53:39;15.60;3.70
4787;DHT22;62338;48.832;9.422;2023-06-10T04:55:41;15.70;1.00
4787;DHT22;62338;48.832;9.422;2023-06-10T04:57:43;15.70;1.00
4787;DHT22;62338;48.832;9.422;2023-06-10T04:59:45;15.70;1.00
4787;DHT22;62338;48.832;9.422;2023-06-10T05:01:47;15.80;1.00
4787;DHT22;62338;48.832;9.422;2023-06-10T05:03:49;15.80;1.00
4787;DHT22;62338;48.832;9.422;2023-06-10T05:05:51;15.90;1.00
4787;DHT22;62338;48.832;9.422;2023-06-10T05:09:58;15.90;1.00
4787;DHT22;62338;48.832;9.422;2023-06-10T05:12:00;16.00;1.00
4787;DHT22;62338;48.832;9.422;2023-06-10T05:14:02;16.00;1.00
4787;DHT22;62338;48.832;9.422;2023-06-10T05:16:04;16.00;1.00
4787;DHT22;62338;48.832;9.422;2023-06-10T05:18:06;16.10;1.00
4787;DHT22;62338;48.832;9.422;2023-06-10T05:20:08;16.20;1.00
4787;DHT22;62338;48.832;9.422;2023-06-10T05:22:10;16.20;1.00
4787;DHT22;62338;48.832;9.422;2023-06-10T05:24:11;16.30;1.00
4787;DHT22;62338;48.832;9.422;2023-06-10T05:26:13;16.30;1.00
4787;DHT22;62338;48.832;9.422;2023-06-10T05:28:15;16.40;1.00
4787;DHT22;62338;48.832;9.422;2023-06-10T05:30:17;16.50;1.00
4787;DHT22;62338;48.832;9.422;2023-06-10T05:32:20;16.50;1.00
4787;DHT22;62338;48.832;9.422;2023-06-10T05:34:22;16.50;1.00
4787;DHT22;62338;48.832;9.422;2023-06-10T05:36:24;16.60;99.90
4787;DHT22;62338;48.832;9.422;2023-06-10T05:38:29;16.60;99.90
4787;DHT22;62338;48.832;9.422;2023-06-10T05:40:31;16.70;99.90
4787;DHT22;62338;48.832;9.422;2023-06-10T05:42:32;16.80;99.90
4787;DHT22;62338;48.832;9.422;2023-06-10T05:44:35;16.90;99.90
4787;DHT22;62338;48.832;9.422;2023-06-10T05:46:36;16.90;99.90
4787;DHT22;62338;48.832;9.422;2023-06-10T05:48:38;17.00;99.90
4787;DHT22;62338;48.832;9.422;2023-06-10T05:50:40;17.00;99.90
4787;DHT22;62338;48.832;9.422;2023-06-10T05:52:44;17.10;99.90
4787;DHT22;62338;48.832;9.422;2023-06-10T05:54:46;17.10;99.90
4787;DHT22;62338;48.832;9.422;2023-06-10T05:56:48;17.20;99.90
4787;DHT22;62338;48.832;9.422;2023-06-10T05:58:50;17.20;99.90
4787;DHT22;62338;48.832;9.422;2023-06-10T06:00:52;17.30;99.90
4787;DHT22;62338;48.832;9.422;2023-06-10T06:02:54;17.40;99.90
4787;DHT22;62338;48.832;9.422;2023-06-10T06:04:56;17.50;99.90
4787;DHT22;62338;48.832;9.422;2023-06-10T06:06:58;17.50;99.90
4787;DHT22;62338;48.832;9.422;2023-06-10T06:08:59;17.60;99.90
4787;DHT22;62338;48.832;9.422;2023-06-10T06:11:01;17.60;99.90
4787;DHT22;62338;48.832;9.422;2023-06-10T06:13:03;17.70;99.90
4787;DHT22;62338;48.832;9.422;2023-06-10T06:15:05;17.80;99.90
4787;DHT22;62338;48.832;9.422;2023-06-10T06:17:07;17.80;99.90
4787;DHT22;62338;48.832;9.422;2023-06-10T06:19:09;17.90;99.90
4787;DHT22;62338;48.832;9.422;2023-06-10T06:21:12;18.00;99.90
4787;DHT22;62338;48.832;9.422;2023-06-10T06:23:14;18.10;99.90
4787;DHT22;62338;48.832;9.422;2023-06-10T06:25:16;18.20;99.90
4787;DHT22;62338;48.832;9.422;2023-06-10T06:27:17;18.30;99.90
4787;DHT22;62338;48.832;9.422;2023-06-10T06:29:19;18.30;99.90
4787;DHT22;62338;48.832;9.422;2023-06-10T06:31:21;18.40;99.90
4787;DHT22;62338;48.832;9.422;2023-06-10T06:33:23;18.50;99.90
4787;DHT22;62338;48.832;9.422;2023-06-10T06:35:25;18.50;99.90
4787;DHT22;62338;48.832;9.422;2023-06-10T06:37:27;18.70;99.90
4787;DHT22;62338;48.832;9.422;2023-06-10T06:39:28;18.70;99.90
4787;DHT22;62338;48.832;9.422;2023-06-10T06:41:30;18.80;99.90
4787;DHT22;62338;48.832;9.422;2023-06-10T06:43:32;18.90;99.90
4787;DHT22;62338;48.832;9.422;2023-06-10T06:45:34;19.00;99.90
4787;DHT22;62338;48.832;9.422;2023-06-10T06:47:36;19.10;99.90
4787;DHT22;62338;48.832;9.422;2023-06-10T06:49:38;19.30;99.90
4787;DHT22;62338;48.832;9.422;2023-06-10T06:51:39;19.60;99.90
4787;DHT22;62338;48.832;9.422;2023-06-10T06:53:41;20.70;99.90
4787;DHT22;62338;48.832;9.422;2023-06-10T06:55:46;22.40;99.90
4787;DHT22;62338;48.832;9.422;2023-06-10T06:57:47;24.20;99.90
4787;DHT22;62338;48.832;9.422;2023-06-10T06:59:49;25.60;99.90
4787;DHT22;62338;48.832;9.422;2023-06-10T07:01:51;26.80;98.00
4787;DHT22;62338;48.832;9.422;2023-06-10T07:03:55;27.80;95.80
4787;DHT22;62338;48.832;9.422;2023-06-10T07:05:57;28.60;90.30
4787;DHT22;62338;48.832;9.422;2023-06-10T07:07:59;29.00;89.20
4787;DHT22;62338;48.832;9.422;2023-06-10T07:10:00;29.70;84.70
4787;DHT22;62338;48.832;9.422;2023-06-10T07:12:02;30.30;83.90
4787;DHT22;62338;48.832;9.422;2023-06-10T07:14:04;30.80;73.40
4787;DHT22;62338;48.832;9.422;2023-06-10T07:16:06;31.00;76.40
4787;DHT22;62338;48.832;9.422;2023-06-10T07:18:08;31.40;71.40
4787;DHT22;62338;48.832;9.422;2023-06-10T07:20:10;31.60;75.90
4787;DHT22;62338;48.832;9.422;2023-06-10T07:22:12;32.00;66.40
4787;DHT22;62338;48.832;9.422;2023-06-10T07:24:14;32.00;66.40
4787;DHT22;62338;48.832;9.422;2023-06-10T07:26:16;32.00;69.20
4787;DHT22;62338;48.832;9.422;2023-06-10T07:28:17;32.20;66.50
4787;DHT22;62338;48.832;9.422;2023-06-10T07:30:19;32.10;67.00
4787;DHT22;62338;48.832;9.422;2023-06-10T07:32:21;32.20;66.10
4787;DHT22;62338;48.832;9.422;2023-06-10T07:34:25;32.20;68.70
4787;DHT22;62338;48.832;9.422;2023-06-10T07:36:27;32.40;65.30
4787;DHT22;62338;48.832;9.422;2023-06-10T07:38:30;32.80;62.10
4787;DHT22;62338;48.832;9.422;2023-06-10T07:40:31;33.00;65.70
4787;DHT22;62338;48.832;9.422;2023-06-10T07:42:36;33.10;60.40
4787;DHT22;62338;48.832;9.422;2023-06-10T07:44:38;33.10;61.70
4787;DHT22;62338;48.832;9.422;2023-06-10T07:46:39;33.10;62.10
4787;DHT22;62338;48.832;9.422;2023-06-10T07:48:41;33.30;61.70
4787;DHT22;62338;48.832;9.422;2023-06-10T07:50:43;33.40;61.00
4787;DHT22;62338;48.832;9.422;2023-06-10T07:52:45;33.70;59.90
4787;DHT22;62338;48.832;9.422;2023-06-10T07:54:47;33.70;61.00
4787;DHT22;62338;48.832;9.422;2023-06-10T07:56:48;33.80;60.30
4787;DHT22;62338;48.832;9.422;2023-06-10T07:58:50;34.20;57.80
4787;DHT22;62338;48.832;9.422;2023-06-10T08:00:52;34.10;56.30
4787;DHT22;62338;48.832;9.422;2023-06-10T08:02:55;34.00;58.70
4787;DHT22;62338;48.832;9.422;2023-06-10T08:04:57;34.20;54.20
4787;DHT22;62338;48.832;9.422;2023-06-10T08:06:59;34.00;57.80
4787;DHT22;62338;48.832;9.422;2023-06-10T08:09:00;34.10;56.20
4787;DHT22;62338;48.832;9.422;2023-06-10T08:11:02;34.10;55.70
4787;DHT22;62338;48.832;9.422;2023-06-10T08:13:04;34.10;56.00
4787;DHT22;62338;48.832;9.422;2023-06-10T08:15:06;34.20;56.00
4787;DHT22;62338;48.832;9.422;2023-06-10T08:17:08;34.40;52.50
4787;DHT22;62338;48.832;9.422;2023-06-10T08:19:10;34.20;56.60
4787;DHT22;62338;48.832;9.422;2023-06-10T08:21:12;34.40;54.70
4787;DHT22;62338;48.832;9.422;2023-06-10T08:23:14;34.50;55.20
4787;DHT22;62338;48.832;9.422;2023-06-10T08:25:16;34.70;53.40
4787;DHT22;62338;48.832;9.422;2023-06-10T08:27:17;35.00;54.40
4787;DHT22;62338;48.832;9.422;2023-06-10T08:29:19;34.90;52.40
4787;DHT22;62338;48.832;9.422;2023-06-10T08:31:21;34.70;52.70
4787;DHT22;62338;48.832;9.422;2023-06-10T08:33:23;34.60;52.80
4787;DHT22;62338;48.832;9.422;2023-06-10T08:35:25;34.30;51.80
4787;DHT22;62338;48.832;9.422;2023-06-10T08:37:27;34.40;53.70
4787;DHT22;62338;48.832;9.422;2023-06-10T08:39:28;34.60;52.00
4787;DHT22;62338;48.832;9.422;2023-06-10T08:41:39;34.90;51.00
4787;DHT22;62338;48.832;9.422;2023-06-10T08:46:13;34.90;52.10
4787;DHT22;62338;48.832;9.422;2023-06-10T08:48:17;34.00;52.30
4787;DHT22;62338;48.832;9.422;2023-06-10T08:50:21;34.40;49.00
4787;DHT22;62338;48.832;9.422;2023-06-10T08:52:24;34.40;53.00
4787;DHT22;62338;48.832;9.422;2023-06-10T08:54:32;34.50;53.30
4787;DHT22;62338;48.832;9.422;2023-06-10T08:56:39;34.90;54.30
4787;DHT22;62338;48.832;9.422;2023-06-10T08:58:41;35.10;50.90
4787;DHT22;62338;48.832;9.422;2023-06-10T09:00:44;35.00;50.80
4787;DHT22;62338;48.832;9.422;2023-06-10T09:02:47;35.10;48.60
4787;DHT22;62338;48.832;9.422;2023-06-10T09:04:49;34.70;52.50
4787;DHT22;62338;48.832;9.422;2023-06-10T09:06:51;34.80;52.60
4787;DHT22;62338;48.832;9.422;2023-06-10T09:08:54;35.20;51.70
4787;DHT22;62338;48.832;9.422;2023-06-10T09:10:57;35.40;48.30
4787;DHT22;62338;48.832;9.422;2023-06-10T09:12:58;34.90;53.20
4787;DHT22;62338;48.832;9.422;2023-06-10T09:15:03;35.10;50.30
4787;DHT22;62338;48.832;9.422;2023-06-10T09:17:06;34.50;52.10
4787;DHT22;62338;48.832;9.422;2023-06-10T09:19:08;33.30;53.50
4787;DHT22;62338;48.832;9.422;2023-06-10T09:21:10;32.00;52.40
4787;DHT22;62338;48.832;9.422;2023-06-10T09:23:12;31.30;54.20
4787;DHT22;62338;48.832;9.422;2023-06-10T09:25:14;31.70;57.30
4787;DHT22;62338;48.832;9.422;2023-06-10T09:27:17;32.80;56.20
4787;DHT22;62338;48.832;9.422;2023-06-10T09:29:18;34.00;52.40
4787;DHT22;62338;48.832;9.422;2023-06-10T09:31:20;34.20;51.50
4787;DHT22;62338;48.832;9.422;2023-06-10T09:33:25;33.30;50.00
4787;DHT22;62338;48.832;9.422;2023-06-10T09:35:30;31.90;53.40
4787;DHT22;62338;48.832;9.422;2023-06-10T09:37:32;30.80;54.50
4787;DHT22;62338;48.832;9.422;2023-06-10T09:39:34;30.70;56.30
4787;DHT22;62338;48.832;9.422;2023-06-10T09:41:39;30.80;55.10
4787;DHT22;62338;48.832;9.422;2023-06-10T09:43:43;31.10;54.80
4787;DHT22;62338;48.832;9.422;2023-06-10T09:45:48;31.90;55.80
4787;DHT22;62338;48.832;9.422;2023-06-10T09:47:53;32.90;53.40
4787;DHT22;62338;48.832;9.422;2023-06-10T09:49:55;32.90;50.90
4787;DHT22;62338;48.832;9.422;2023-06-10T09:51:57;32.70;54.70
4787;DHT22;62338;48.832;9.422;2023-06-10T09:53:59;33.00;50.00
4787;DHT22;62338;48.832;9.422;2023-06-10T09:56:03;33.40;51.60
4787;DHT22;62338;48.832;9.422;2023-06-10T09:58:06;33.70;50.60
4787;DHT22;62338;48.832;9.422;2023-06-10T10:00:09;33.80;52.60
4787;DHT22;62338;48.832;9.422;2023-06-10T10:02:15;33.70;49.40
4787;DHT22;62338;48.832;9.422;2023-06-10T10:04:23;33.50;52.60
4787;DHT22;62338;48.832;9.422;2023-06-10T10:06:26;33.90;52.90
4787;DHT22;62338;48.832;9.422;2023-06-10T10:08:28;34.30;50.00
4787;DHT22;62338;48.832;9.422;2023-06-10T10:10:31;34.70;47.20
4787;DHT22;62338;48.832;9.422;2023-06-10T10:12:33;34.80;47.30
4787;DHT22;62338;48.832;9.422;2023-06-10T10:14:35;35.00;47.90
4787;DHT22;62338;48.832;9.422;2023-06-10T10:16:40;35.60;46.30
4787;DHT22;62338;48.832;9.422;2023-06-10T10:18:46;35.80;46.30
4787;DHT22;62338;48.832;9.422;2023-06-10T10:20:51;35.90;48.50
4787;DHT22;62338;48.832;9.422;2023-06-10T10:23:03;36.10;46.60
4787;DHT22;62338;48.832;9.422;2023-06-10T10:25:16;36.80;46.60
4787;DHT22;62338;48.832;9.422;2023-06-10T10:30:01;36.20;44.80
4787;DHT22;62338;48.832;9.422;2023-06-10T10:32:07;35.80;47.30
4787;DHT22;62338;48.832;9.422;2023-06-10T10:34:15;35.40;44.80
4787;DHT22;62338;48.832;9.422;2023-06-10T10:36:18;34.90;49.40
4787;DHT22;62338;48.832;9.422;2023-06-10T10:38:21;35.10;47.70
4787;DHT22;62338;48.832;9.422;2023-06-10T10:40:24;34.70;47.10
4787;DHT22;62338;48.832;9.422;2023-06-10T10:42:27;33.70;49.10
4787;DHT22;62338;48.832;9.422;2023-06-10T10:44:30;34.00;50.00
4787;DHT22;62338;48.832;9.422;2023-06-10T10:46:42;33.70;49.70
4787;DHT22;62338;48.832;9.422;2023-06-10T10:48:46;33.00;49.80
4787;DHT22;62338;48.832;9.422;2023-06-10T10:50:57;32.00;51.90
4787;DHT22;62338;48.832;9.422;2023-06-10T10:53:02;31.40;53.20
4787;DHT22;62338;48.832;9.422;2023-06-10T10:55:12;30.80;52.00
4787;DHT22;62338;48.832;9.422;2023-06-10T10:57:21;30.60;54.20
4787;DHT22;62338;48.832;9.422;2023-06-10T10:59:23;31.10;54.50
4787;DHT22;62338;48.832;9.422;2023-06-10T11:01:24;31.60;53.80
4787;DHT22;62338;48.832;9.422;2023-06-10T11:03:45;31.50;53.50
4787;DHT22;62338;48.832;9.422;2023-06-10T11:05:49;31.00;53.20
4787;DHT22;62338;48.832;9.422;2023-06-10T11:07:53;30.40;54.80
4787;DHT22;62338;48.832;9.422;2023-06-10T11:12:09;29.30;56.40
4787;DHT22;62338;48.832;9.422;2023-06-10T11:14:11;29.40;58.30
4787;DHT22;62338;48.832;9.422;2023-06-10T11:16:19;30.00;58.40
4787;DHT22;62338;48.832;9.422;2023-06-10T11:20:52;31.90;57.30
4787;DHT22;62338;48.832;9.422;2023-06-10T11:22:59;33.20;50.70
4787;DHT22;62338;48.832;9.422;2023-06-10T11:25:02;33.00;52.20
4787;DHT22;62338;48.832;9.422;2023-06-10T11:27:15;32.50;49.40
4787;DHT22;62338;48.832;9.422;2023-06-10T11:29:18;32.60;53.70
4787;DHT22;62338;48.832;9.422;2023-06-10T11:31:22;33.20;52.30
4787;DHT22;62338;48.832;9.422;2023-06-10T11:33:25;33.40;47.50
4787;DHT22;62338;48.832;9.422;2023-06-10T11:35:27;33.10;49.60
4787;DHT22;62338;48.832;9.422;2023-06-10T11:37:29;33.10;52.80
4787;DHT22;62338;48.832;9.422;2023-06-10T11:39:31;33.80;50.10
4787;DHT22;62338;48.832;9.422;2023-06-10T11:41:34;34.60;50.10
4787;DHT22;62338;48.832;9.422;2023-06-10T11:43:39;35.20;48.80
4787;DHT22;62338;48.832;9.422;2023-06-10T11:45:42;35.30;45.40
4787;DHT22;62338;48.832;9.422;2023-06-10T11:47:59;34.60;46.60
4787;DHT22;62338;48.832;9.422;2023-06-10T11:50:01;33.50;46.20
4787;DHT22;62338;48.832;9.422;2023-06-10T11:52:04;32.60;48.10
4787;DHT22;62338;48.832;9.422;2023-06-10T11:54:08;32.00;49.40
4787;DHT22;62338;48.832;9.422;2023-06-10T11:56:10;31.30;49.40
4787;DHT22;62338;48.832;9.422;2023-06-10T11:58:21;30.70;51.90
4787;DHT22;62338;48.832;9.422;2023-06-10T12:00:23;30.20;51.20
4787;DHT22;62338;48.832;9.422;2023-06-10T12:02:26;30.30;55.50
4787;DHT22;62338;48.832;9.422;2023-06-10T12:04:28;31.30;58.10
4787;DHT22;62338;48.832;9.422;2023-06-10T12:06:44;32.50;51.30
4787;DHT22;62338;48.832;9.422;2023-06-10T12:08:46;33.60;50.20
4787;DHT22;62338;48.832;9.422;2023-06-10T12:10:47;33.80;47.50
4787;DHT22;62338;48.832;9.422;2023-06-10T12:12:49;33.80;50.70
4787;DHT22;62338;48.832;9.422;2023-06-10T12:14:58;33.80;49.10
4787;DHT22;62338;48.832;9.422;2023-06-10T12:17:00;33.20;48.70
4787;DHT22;62338;48.832;9.422;2023-06-10T12:19:04;32.90;49.50
4787;DHT22;62338;48.832;9.422;2023-06-10T12:21:23;33.00;51.00
4787;DHT22;62338;48.832;9.422;2023-06-10T12:23:24;33.60;49.70
4787;DHT22;62338;48.832;9.422;2023-06-10T12:25:30;34.50;50.50
4787;DHT22;62338;48.832;9.422;2023-06-10T12:27:32;35.10;47.20
4787;DHT22;62338;48.832;9.422;2023-06-10T12:29:35;35.70;47.90
4787;DHT22;62338;48.832;9.422;2023-06-10T12:34:10;36.60;46.30
4787;DHT22;62338;48.832;9.422;2023-06-10T12:36:16;36.50;42.40
4787;DHT22;62338;48.832;9.422;2023-06-10T12:38:23;36.70;41.10
4787;DHT22;62338;48.832;9.422;2023-06-10T12:40:34;36.50;43.90
4787;DHT22;62338;48.832;9.422;2023-06-10T12:42:36;36.70;43.90
4787;DHT22;62338;48.832;9.422;2023-06-10T12:44:40;36.50;42.70
4787;DHT22;62338;48.832;9.422;2023-06-10T12:46:43;36.10;43.40
4787;DHT22;62338;48.832;9.422;2023-06-10T12:48:50;35.90;42.60
4787;DHT22;62338;48.832;9.422;2023-06-10T12:50:58;35.00;43.40
4787;DHT22;62338;48.832;9.422;2023-06-10T12:53:00;34.70;43.80
4787;DHT22;62338;48.832;9.422;2023-06-10T12:55:03;34.80;45.40
4787;DHT22;62338;48.832;9.422;2023-06-10T12:57:06;35.10;44.10
4787;DHT22;62338;48.832;9.422;2023-06-10T12:59:07;35.30;44.10
4787;DHT22;62338;48.832;9.422;2023-06-10T13:01:09;35.60;43.20
4787;DHT22;62338;48.832;9.422;2023-06-10T13:03:11;35.80;44.60
4787;DHT22;62338;48.832;9.422;2023-06-10T13:05:13;36.10;45.60
4787;DHT22;62338;48.832;9.422;2023-06-10T13:07:18;36.40;44.20
4787;DHT22;62338;48.832;9.422;2023-06-10T13:09:20;37.00;40.90
4787;DHT22;62338;48.832;9.422;2023-06-10T13:11:21;37.30;42.50
4787;DHT22;62338;48.832;9.422;2023-06-10T13:13:27;37.80;43.20
4787;DHT22;62338;48.832;9.422;2023-06-10T13:15:29;38.40;42.70
4787;DHT22;62338;48.832;9.422;2023-06-10T13:17:31;38.80;39.00
4787;DHT22;62338;48.832;9.422;2023-06-10T13:19:33;38.50;39.10
4787;DHT22;62338;48.832;9.422;2023-06-10T13:21:35;38.90;41.70
4787;DHT22;62338;48.832;9.422;2023-06-10T13:23:39;38.30;39.90
4787;DHT22;62338;48.832;9.422;2023-06-10T13:25:40;37.10;40.30
4787;DHT22;62338;48.832;9.422;2023-06-10T13:27:46;35.80;41.80
4787;DHT22;62338;48.832;9.422;2023-06-10T13:29:47;34.50;42.70
4787;DHT22;62338;48.832;9.422;2023-06-10T13:31:49;33.30;44.40
4787;DHT22;62338;48.832;9.422;2023-06-10T13:33:51;32.30;45.70